PAKT/KTN METAR and TAF weather

Enter ICAO airport designator
Station Type Date Time Source
PAKT METAR 2021/09/20 06:06 UTC NOAA

PAKT 200606Z AUTO 14006KT 10SM SCT015 SCT024 OVC065 12/11 A2998 RMK AO2 T01170106 TSNO $


Station Type Date Time Source
PAKT Decoded METAR 2021/09/20 06:06 UTC NOAA

KETCHIKAN INTERNATIONAL AIRPORT , AK, United States (PAKT) 55-21N 131-43W 25M
Sep 20, 2021 - 02:06 AM EDT / 2021.09.20 0606 UTC
Wind: from the SE (140 degrees) at 7 MPH (6 KT):0
Visibility: 10 mile(s):0
Sky conditions: overcast
Temperature: 53.1 F (11.7 C)
Dew Point: 51.1 F (10.6 C)
Relative Humidity: 92%
Pressure (altimeter): 29.98 in. Hg (1015 hPa)
ob: PAKT 200606Z AUTO 14006KT 10SM SCT015 SCT024 OVC065 12/11 A2998 RMK AO2 T01170106 TSNO
cycle: 6

Station Type Date Time Source
PAKT TAF 2021/09/20 06:42 UTC NOAA

TAF PAKT 200540Z 2006/2106 16004KT P6SM FEW018 BKN035 OVC070
FM201100 14005KT P6SM -RA SCT010 OVC025
FM201400 14015G25KT 4SM -RA BR SCT005 OVC025 WS020/15050KT
FM201800 14025G35KT 4SM RA BR OVC025 WS020/13045KT
FM210000 14020G30KT 2SM RA BR OVC007
AMD LTD TO CLD VIS AND WIND 2006/2015

Example: see airport list